sensor_id;sensor_type;location;lat;lon;timestamp;temperature;humidity
41694;DHT22;27377;50.666;9.150;2023-04-06T00:01:19;0.20;99.90
41694;DHT22;27377;50.666;9.150;2023-04-06T00:03:45;0.10;99.90
41694;DHT22;27377;50.666;9.150;2023-04-06T00:06:10;0.10;99.90
41694;DHT22;27377;50.666;9.150;2023-04-06T00:08:36;0.10;99.90
41694;DHT22;27377;50.666;9.150;2023-04-06T00:11:01;0.10;99.90
41694;DHT22;27377;50.666;9.150;2023-04-06T00:13:27;0.10;99.90
41694;DHT22;27377;50.666;9.150;2023-04-06T00:15:53;0.10;99.90
41694;DHT22;27377;50.666;9.150;2023-04-06T00:18:18;0.10;99.90
41694;DHT22;27377;50.666;9.150;2023-04-06T00:20:44;-0.10;99.90
41694;DHT22;27377;50.666;9.150;2023-04-06T00:23:10;-0.20;99.90
41694;DHT22;27377;50.666;9.150;2023-04-06T00:25:36;-0.20;99.90
41694;DHT22;27377;50.666;9.150;2023-04-06T00:28:01;-0.10;99.90
41694;DHT22;27377;50.666;9.150;2023-04-06T00:30:27;-0.10;99.90
41694;DHT22;27377;50.666;9.150;2023-04-06T00:32:52;-0.10;99.90
41694;DHT22;27377;50.666;9.150;2023-04-06T00:35:18;-0.20;99.90
41694;DHT22;27377;50.666;9.150;2023-04-06T00:37:45;-0.20;99.90
41694;DHT22;27377;50.666;9.150;2023-04-06T00:40:11;-0.20;99.90
41694;DHT22;27377;50.666;9.150;2023-04-06T00:42:37;-0.20;99.90
41694;DHT22;27377;50.666;9.150;2023-04-06T00:45:02;-0.20;99.90
41694;DHT22;27377;50.666;9.150;2023-04-06T00:47:28;-0.20;99.90
41694;DHT22;27377;50.666;9.150;2023-04-06T00:49:54;-0.20;99.90
41694;DHT22;27377;50.666;9.150;2023-04-06T00:52:20;-0.30;99.90
41694;DHT22;27377;50.666;9.150;2023-04-06T00:54:46;-0.40;99.90
41694;DHT22;27377;50.666;9.150;2023-04-06T00:57:12;-0.40;99.90
41694;DHT22;27377;50.666;9.150;2023-04-06T00:59:39;-0.40;99.90
41694;DHT22;27377;50.666;9.150;2023-04-06T01:02:04;-0.40;99.90
41694;DHT22;27377;50.666;9.150;2023-04-06T01:04:31;-0.40;99.90
41694;DHT22;27377;50.666;9.150;2023-04-06T01:06:56;-0.40;99.90
41694;DHT22;27377;50.666;9.150;2023-04-06T01:09:22;-0.40;99.90
41694;DHT22;27377;50.666;9.150;2023-04-06T01:11:47;-0.40;99.90
41694;DHT22;27377;50.666;9.150;2023-04-06T01:14:13;-0.50;99.90
41694;DHT22;27377;50.666;9.150;2023-04-06T01:16:40;-0.50;99.90
41694;DHT22;27377;50.666;9.150;2023-04-06T01:19:10;-0.50;99.90
41694;DHT22;27377;50.666;9.150;2023-04-06T01:21:40;-0.50;99.90
41694;DHT22;27377;50.666;9.150;2023-04-06T01:24:07;-0.60;99.90
41694;DHT22;27377;50.666;9.150;2023-04-06T01:26:33;-0.60;99.90
41694;DHT22;27377;50.666;9.150;2023-04-06T01:28:59;-0.60;99.90
41694;DHT22;27377;50.666;9.150;2023-04-06T01:31:24;-0.60;99.90
41694;DHT22;27377;50.666;9.150;2023-04-06T01:33:50;-0.60;99.90
41694;DHT22;27377;50.666;9.150;2023-04-06T01:36:16;-0.60;99.90
41694;DHT22;27377;50.666;9.150;2023-04-06T01:38:42;-0.60;99.90
41694;DHT22;27377;50.666;9.150;2023-04-06T01:41:08;-0.60;99.90
41694;DHT22;27377;50.666;9.150;2023-04-06T01:43:34;-0.70;99.90
41694;DHT22;27377;50.666;9.150;2023-04-06T01:46:00;-0.80;99.90
41694;DHT22;27377;50.666;9.150;2023-04-06T01:48:26;-0.80;99.90
41694;DHT22;27377;50.666;9.150;2023-04-06T01:50:52;-0.70;99.90
41694;DHT22;27377;50.666;9.150;2023-04-06T01:53:18;-0.70;99.90
41694;DHT22;27377;50.666;9.150;2023-04-06T01:55:43;-0.80;99.90
41694;DHT22;27377;50.666;9.150;2023-04-06T01:58:09;-0.80;99.90
41694;DHT22;27377;50.666;9.150;2023-04-06T02:00:35;-0.80;99.90
41694;DHT22;27377;50.666;9.150;2023-04-06T02:03:01;-0.70;99.90
41694;DHT22;27377;50.666;9.150;2023-04-06T02:05:27;-0.70;99.90
41694;DHT22;27377;50.666;9.150;2023-04-06T02:07:53;-0.80;99.90
41694;DHT22;27377;50.666;9.150;2023-04-06T02:10:18;-0.80;99.90
41694;DHT22;27377;50.666;9.150;2023-04-06T02:12:44;-0.80;99.90
41694;DHT22;27377;50.666;9.150;2023-04-06T02:15:10;-0.80;99.90
41694;DHT22;27377;50.666;9.150;2023-04-06T02:17:35;-0.80;99.90
41694;DHT22;27377;50.666;9.150;2023-04-06T02:20:01;-0.80;99.90
41694;DHT22;27377;50.666;9.150;2023-04-06T02:22:26;-0.80;99.90
41694;DHT22;27377;50.666;9.150;2023-04-06T02:24:52;-0.90;99.90
41694;DHT22;27377;50.666;9.150;2023-04-06T02:27:17;-0.90;99.90
41694;DHT22;27377;50.666;9.150;2023-04-06T02:29:43;-0.90;99.90
41694;DHT22;27377;50.666;9.150;2023-04-06T02:32:08;-0.90;99.90
41694;DHT22;27377;50.666;9.150;2023-04-06T02:34:34;-0.90;99.90
41694;DHT22;27377;50.666;9.150;2023-04-06T02:37:00;-0.90;99.90
41694;DHT22;27377;50.666;9.150;2023-04-06T02:39:25;-1.00;99.90
41694;DHT22;27377;50.666;9.150;2023-04-06T02:41:55;-1.10;99.90
41694;DHT22;27377;50.666;9.150;2023-04-06T02:44:22;-1.10;99.90
41694;DHT22;27377;50.666;9.150;2023-04-06T02:46:48;-1.10;99.90
41694;DHT22;27377;50.666;9.150;2023-04-06T02:49:13;-1.10;99.90
41694;DHT22;27377;50.666;9.150;2023-04-06T02:51:39;-1.10;99.90
41694;DHT22;27377;50.666;9.150;2023-04-06T02:54:05;-1.10;99.90
41694;DHT22;27377;50.666;9.150;2023-04-06T02:56:31;-1.10;99.90
41694;DHT22;27377;50.666;9.150;2023-04-06T02:58:56;-1.10;99.90
41694;DHT22;27377;50.666;9.150;2023-04-06T03:01:22;-1.20;99.90
41694;DHT22;27377;50.666;9.150;2023-04-06T03:03:48;-1.30;99.90
41694;DHT22;27377;50.666;9.150;2023-04-06T03:06:13;-1.20;99.90
41694;DHT22;27377;50.666;9.150;2023-04-06T03:08:39;-1.20;99.90
41694;DHT22;27377;50.666;9.150;2023-04-06T03:11:04;-1.20;99.90
41694;DHT22;27377;50.666;9.150;2023-04-06T03:13:35;-1.20;99.90
41694;DHT22;27377;50.666;9.150;2023-04-06T03:16:01;-1.30;99.90
41694;DHT22;27377;50.666;9.150;2023-04-06T03:18:27;-1.30;99.90
41694;DHT22;27377;50.666;9.150;2023-04-06T03:20:58;-1.30;99.90
41694;DHT22;27377;50.666;9.150;2023-04-06T03:23:25;-1.30;99.90
41694;DHT22;27377;50.666;9.150;2023-04-06T03:25:50;-1.30;99.90
41694;DHT22;27377;50.666;9.150;2023-04-06T03:28:16;-1.40;99.90
41694;DHT22;27377;50.666;9.150;2023-04-06T03:30:44;-1.40;99.90
41694;DHT22;27377;50.666;9.150;2023-04-06T03:33:10;-1.40;99.90
41694;DHT22;27377;50.666;9.150;2023-04-06T03:35:36;-1.40;99.90
41694;DHT22;27377;50.666;9.150;2023-04-06T03:38:03;-1.40;99.90
41694;DHT22;27377;50.666;9.150;2023-04-06T03:40:29;-1.50;99.90
41694;DHT22;27377;50.666;9.150;2023-04-06T03:42:55;-1.40;99.90
41694;DHT22;27377;50.666;9.150;2023-04-06T03:45:20;-1.50;99.90
41694;DHT22;27377;50.666;9.150;2023-04-06T03:47:46;-1.40;99.90
41694;DHT22;27377;50.666;9.150;2023-04-06T03:50:12;-1.50;99.90
41694;DHT22;27377;50.666;9.150;2023-04-06T03:52:38;-1.50;99.90
41694;DHT22;27377;50.666;9.150;2023-04-06T03:55:07;-1.50;99.90
41694;DHT22;27377;50.666;9.150;2023-04-06T03:57:33;-1.50;99.90
41694;DHT22;27377;50.666;9.150;2023-04-06T03:59:58;-1.50;99.90
41694;DHT22;27377;50.666;9.150;2023-04-06T04:02:24;-1.50;99.90
41694;DHT22;27377;50.666;9.150;2023-04-06T04:04:49;-1.50;99.90
41694;DHT22;27377;50.666;9.150;2023-04-06T04:07:15;-1.50;99.90
41694;DHT22;27377;50.666;9.150;2023-04-06T04:09:41;-1.50;99.90
41694;DHT22;27377;50.666;9.150;2023-04-06T04:12:07;-1.50;99.90
41694;DHT22;27377;50.666;9.150;2023-04-06T04:14:33;-1.60;99.90
41694;DHT22;27377;50.666;9.150;2023-04-06T04:16:58;-1.60;99.90
41694;DHT22;27377;50.666;9.150;2023-04-06T04:19:24;-1.60;99.90
41694;DHT22;27377;50.666;9.150;2023-04-06T04:21:52;-1.60;99.90
41694;DHT22;27377;50.666;9.150;2023-04-06T04:24:18;-1.60;99.90
41694;DHT22;27377;50.666;9.150;2023-04-06T04:26:43;-1.60;99.90
41694;DHT22;27377;50.666;9.150;2023-04-06T04:29:09;-1.70;99.90
41694;DHT22;27377;50.666;9.150;2023-04-06T04:31:35;-1.70;99.90
41694;DHT22;27377;50.666;9.150;2023-04-06T04:34:00;-1.80;99.90
41694;DHT22;27377;50.666;9.150;2023-04-06T04:36:27;-1.70;99.90
41694;DHT22;27377;50.666;9.150;2023-04-06T04:38:52;-1.70;99.90
41694;DHT22;27377;50.666;9.150;2023-04-06T04:41:18;-1.70;99.90
41694;DHT22;27377;50.666;9.150;2023-04-06T04:43:44;-1.70;99.90
41694;DHT22;27377;50.666;9.150;2023-04-06T04:46:09;-1.70;99.90
41694;DHT22;27377;50.666;9.150;2023-04-06T04:48:35;-1.70;99.90
41694;DHT22;27377;50.666;9.150;2023-04-06T04:51:01;-1.70;99.90
41694;DHT22;27377;50.666;9.150;2023-04-06T04:53:30;-1.70;99.90
41694;DHT22;27377;50.666;9.150;2023-04-06T04:55:55;-1.70;99.90
41694;DHT22;27377;50.666;9.150;2023-04-06T04:58:21;-1.70;99.90
41694;DHT22;27377;50.666;9.150;2023-04-06T05:00:47;-1.70;99.90
41694;DHT22;27377;50.666;9.150;2023-04-06T05:03:18;-1.80;99.90
41694;DHT22;27377;50.666;9.150;2023-04-06T05:05:48;-1.70;99.90
41694;DHT22;27377;50.666;9.150;2023-04-06T05:08:15;-1.80;99.90
41694;DHT22;27377;50.666;9.150;2023-04-06T05:10:41;-1.70;99.90
41694;DHT22;27377;50.666;9.150;2023-04-06T05:13:07;-1.70;99.90
41694;DHT22;27377;50.666;9.150;2023-04-06T05:15:33;-1.70;99.90
41694;DHT22;27377;50.666;9.150;2023-04-06T05:18:00;-1.70;99.90
41694;DHT22;27377;50.666;9.150;2023-04-06T05:20:26;-1.70;99.90
41694;DHT22;27377;50.666;9.150;2023-04-06T05:22:53;-1.70;99.90
41694;DHT22;27377;50.666;9.150;2023-04-06T05:25:19;-1.70;99.90
41694;DHT22;27377;50.666;9.150;2023-04-06T05:27:44;-1.70;99.90
41694;DHT22;27377;50.666;9.150;2023-04-06T05:30:10;-1.80;99.90
41694;DHT22;27377;50.666;9.150;2023-04-06T05:32:36;-1.80;99.90
41694;DHT22;27377;50.666;9.150;2023-04-06T05:35:02;-1.80;99.90
41694;DHT22;27377;50.666;9.150;2023-04-06T05:37:27;-1.80;99.90
41694;DHT22;27377;50.666;9.150;2023-04-06T05:39:53;-1.80;99.90
41694;DHT22;27377;50.666;9.150;2023-04-06T05:42:18;-1.70;99.90
41694;DHT22;27377;50.666;9.150;2023-04-06T05:44:44;-1.70;99.90
41694;DHT22;27377;50.666;9.150;2023-04-06T05:47:10;-1.60;99.90
41694;DHT22;27377;50.666;9.150;2023-04-06T05:49:35;-1.60;99.90
41694;DHT22;27377;50.666;9.150;2023-04-06T05:52:01;-1.50;99.90
41694;DHT22;27377;50.666;9.150;2023-04-06T05:54:27;-1.50;99.90
41694;DHT22;27377;50.666;9.150;2023-04-06T05:56:52;-1.40;99.90
41694;DHT22;27377;50.666;9.150;2023-04-06T05:59:18;-1.40;99.90
41694;DHT22;27377;50.666;9.150;2023-04-06T06:01:43;-1.40;99.90
41694;DHT22;27377;50.666;9.150;2023-04-06T06:04:09;-1.30;99.90
41694;DHT22;27377;50.666;9.150;2023-04-06T06:06:35;-1.30;99.90
41694;DHT22;27377;50.666;9.150;2023-04-06T06:09:01;-1.30;99.90
41694;DHT22;27377;50.666;9.150;2023-04-06T06:11:28;-1.30;99.90
41694;DHT22;27377;50.666;9.150;2023-04-06T06:13:54;-1.20;99.90
41694;DHT22;27377;50.666;9.150;2023-04-06T06:16:20;-1.20;99.90
41694;DHT22;27377;50.666;9.150;2023-04-06T06:18:45;-1.10;99.90
41694;DHT22;27377;50.666;9.150;2023-04-06T06:21:11;-1.10;99.90
41694;DHT22;27377;50.666;9.150;2023-04-06T06:23:42;-1.10;99.90
41694;DHT22;27377;50.666;9.150;2023-04-06T06:26:08;-1.00;99.90
41694;DHT22;27377;50.666;9.150;2023-04-06T06:28:33;-0.90;99.90
41694;DHT22;27377;50.666;9.150;2023-04-06T06:30:59;-0.90;99.90
41694;DHT22;27377;50.666;9.150;2023-04-06T06:33:24;-0.80;99.90
41694;DHT22;27377;50.666;9.150;2023-04-06T06:35:51;-0.70;99.90
41694;DHT22;27377;50.666;9.150;2023-04-06T06:38:17;-0.70;99.90
41694;DHT22;27377;50.666;9.150;2023-04-06T06:40:43;-0.70;99.90
41694;DHT22;27377;50.666;9.150;2023-04-06T06:43:08;-0.60;99.90
41694;DHT22;27377;50.666;9.150;2023-04-06T06:45:34;-0.50;99.90
41694;DHT22;27377;50.666;9.150;2023-04-06T06:48:00;-0.40;99.90
41694;DHT22;27377;50.666;9.150;2023-04-06T06:50:25;-0.30;99.90
41694;DHT22;27377;50.666;9.150;2023-04-06T06:52:51;-0.30;99.90
41694;DHT22;27377;50.666;9.150;2023-04-06T06:55:16;-0.10;99.90
41694;DHT22;27377;50.666;9.150;2023-04-06T06:57:44;-0.10;99.90
41694;DHT22;27377;50.666;9.150;2023-04-06T07:00:11;0.00;99.90
41694;DHT22;27377;50.666;9.150;2023-04-06T07:02:38;0.10;99.90
41694;DHT22;27377;50.666;9.150;2023-04-06T07:05:04;0.20;99.90
41694;DHT22;27377;50.666;9.150;2023-04-06T07:07:32;0.40;99.90
41694;DHT22;27377;50.666;9.150;2023-04-06T07:09:58;0.50;99.90
41694;DHT22;27377;50.666;9.150;2023-04-06T07:12:23;0.50;99.90
41694;DHT22;27377;50.666;9.150;2023-04-06T07:14:49;0.60;99.90
41694;DHT22;27377;50.666;9.150;2023-04-06T07:17:14;0.70;99.90
41694;DHT22;27377;50.666;9.150;2023-04-06T07:19:40;0.80;99.90
41694;DHT22;27377;50.666;9.150;2023-04-06T07:22:06;0.90;99.90
41694;DHT22;27377;50.666;9.150;2023-04-06T07:24:31;1.00;99.90
41694;DHT22;27377;50.666;9.150;2023-04-06T07:26:58;1.00;99.90
41694;DHT22;27377;50.666;9.150;2023-04-06T07:29:24;1.10;99.90
41694;DHT22;27377;50.666;9.150;2023-04-06T07:31:49;1.30;99.90
41694;DHT22;27377;50.666;9.150;2023-04-06T07:34:15;1.40;99.90
41694;DHT22;27377;50.666;9.150;2023-04-06T07:36:41;1.50;99.90
41694;DHT22;27377;50.666;9.150;2023-04-06T07:39:07;1.70;99.90
41694;DHT22;27377;50.666;9.150;2023-04-06T07:41:32;1.80;99.90
41694;DHT22;27377;50.666;9.150;2023-04-06T07:43:58;2.00;99.90
41694;DHT22;27377;50.666;9.150;2023-04-06T07:46:24;2.10;99.90
41694;DHT22;27377;50.666;9.150;2023-04-06T07:48:49;2.20;99.90
41694;DHT22;27377;50.666;9.150;2023-04-06T07:51:15;2.30;99.90
41694;DHT22;27377;50.666;9.150;2023-04-06T07:53:45;2.30;99.90
41694;DHT22;27377;50.666;9.150;2023-04-06T07:56:11;2.50;99.90
41694;DHT22;27377;50.666;9.150;2023-04-06T07:58:37;2.60;99.90
41694;DHT22;27377;50.666;9.150;2023-04-06T08:01:03;2.70;99.90
41694;DHT22;27377;50.666;9.150;2023-04-06T08:03:29;2.70;99.90
41694;DHT22;27377;50.666;9.150;2023-04-06T08:05:54;2.80;99.90
41694;DHT22;27377;50.666;9.150;2023-04-06T08:08:20;2.90;99.90
41694;DHT22;27377;50.666;9.150;2023-04-06T08:10:47;2.90;99.90
41694;DHT22;27377;50.666;9.150;2023-04-06T08:13:13;3.00;99.90
41694;DHT22;27377;50.666;9.150;2023-04-06T08:15:39;3.10;99.90
41694;DHT22;27377;50.666;9.150;2023-04-06T08:18:04;3.20;99.90
41694;DHT22;27377;50.666;9.150;2023-04-06T08:20:30;3.20;99.90
41694;DHT22;27377;50.666;9.150;2023-04-06T08:22:56;3.40;99.90
41694;DHT22;27377;50.666;9.150;2023-04-06T08:25:21;3.40;99.90
41694;DHT22;27377;50.666;9.150;2023-04-06T08:27:47;3.50;99.90
41694;DHT22;27377;50.666;9.150;2023-04-06T08:30:12;3.60;99.90
41694;DHT22;27377;50.666;9.150;2023-04-06T08:32:40;3.60;99.90
41694;DHT22;27377;50.666;9.150;2023-04-06T08:35:06;3.70;99.90
41694;DHT22;27377;50.666;9.150;2023-04-06T08:37:33;3.70;99.90
41694;DHT22;27377;50.666;9.150;2023-04-06T08:39:58;3.80;99.90
41694;DHT22;27377;50.666;9.150;2023-04-06T08:42:25;3.90;99.90
41694;DHT22;27377;50.666;9.150;2023-04-06T08:44:51;3.90;99.90
41694;DHT22;27377;50.666;9.150;2023-04-06T08:47:18;4.00;99.90
41694;DHT22;27377;50.666;9.150;2023-04-06T08:49:44;4.00;99.90
41694;DHT22;27377;50.666;9.150;2023-04-06T08:52:11;4.10;99.90
41694;DHT22;27377;50.666;9.150;2023-04-06T08:54:37;4.20;99.90
41694;DHT22;27377;50.666;9.150;2023-04-06T08:57:03;4.20;99.90
41694;DHT22;27377;50.666;9.150;2023-04-06T08:59:30;4.20;99.90
41694;DHT22;27377;50.666;9.150;2023-04-06T09:01:56;4.40;99.90
41694;DHT22;27377;50.666;9.150;2023-04-06T09:04:22;4.40;99.90
41694;DHT22;27377;50.666;9.150;2023-04-06T09:06:47;4.40;99.90
41694;DHT22;27377;50.666;9.150;2023-04-06T09:09:12;4.50;99.90
41694;DHT22;27377;50.666;9.150;2023-04-06T09:11:51;4.50;99.90
41694;DHT22;27377;50.666;9.150;2023-04-06T09:14:32;4.60;99.90
41694;DHT22;27377;50.666;9.150;2023-04-06T09:16:58;4.60;99.90
41694;DHT22;27377;50.666;9.150;2023-04-06T09:19:23;4.70;99.90
41694;DHT22;27377;50.666;9.150;2023-04-06T09:21:49;4.80;99.90
41694;DHT22;27377;50.666;9.150;2023-04-06T09:24:14;4.80;99.90
41694;DHT22;27377;50.666;9.150;2023-04-06T09:26:46;4.90;99.90
41694;DHT22;27377;50.666;9.150;2023-04-06T09:29:22;4.90;99.90
41694;DHT22;27377;50.666;9.150;2023-04-06T09:31:49;4.90;99.90
41694;DHT22;27377;50.666;9.150;2023-04-06T09:34:24;4.90;99.90
41694;DHT22;27377;50.666;9.150;2023-04-06T09:36:49;5.00;99.90
41694;DHT22;27377;50.666;9.150;2023-04-06T09:39:20;5.00;99.90
41694;DHT22;27377;50.666;9.150;2023-04-06T09:41:50;5.10;99.90
41694;DHT22;27377;50.666;9.150;2023-04-06T09:44:16;5.20;99.90
41694;DHT22;27377;50.666;9.150;2023-04-06T09:46:43;5.20;99.90
41694;DHT22;27377;50.666;9.150;2023-04-06T09:49:10;5.30;99.90
41694;DHT22;27377;50.666;9.150;2023-04-06T09:51:39;5.30;99.90
41694;DHT22;27377;50.666;9.150;2023-04-06T09:54:06;5.30;99.90
41694;DHT22;27377;50.666;9.150;2023-04-06T09:56:52;5.40;99.90
41694;DHT22;27377;50.666;9.150;2023-04-06T10:01:53;5.50;99.90
41694;DHT22;27377;50.666;9.150;2023-04-06T10:07:39;5.70;99.90
41694;DHT22;27377;50.666;9.150;2023-04-06T10:10:05;5.70;99.70
41694;DHT22;27377;50.666;9.150;2023-04-06T10:12:31;5.80;99.90
41694;DHT22;27377;50.666;9.150;2023-04-06T10:14:57;5.80;99.90
41694;DHT22;27377;50.666;9.150;2023-04-06T10:17:22;5.80;99.90
41694;DHT22;27377;50.666;9.150;2023-04-06T10:19:55;5.80;99.90
41694;DHT22;27377;50.666;9.150;2023-04-06T10:22:32;5.90;99.90
41694;DHT22;27377;50.666;9.150;2023-04-06T10:25:00;5.90;99.90
41694;DHT22;27377;50.666;9.150;2023-04-06T10:27:30;6.00;99.90
41694;DHT22;27377;50.666;9.150;2023-04-06T10:30:04;6.00;99.90
41694;DHT22;27377;50.666;9.150;2023-04-06T10:32:37;6.00;99.90
41694;DHT22;27377;50.666;9.150;2023-04-06T10:35:09;6.00;99.90
41694;DHT22;27377;50.666;9.150;2023-04-06T10:37:54;6.10;99.90
41694;DHT22;27377;50.666;9.150;2023-04-06T10:40:25;6.20;99.90
41694;DHT22;27377;50.666;9.150;2023-04-06T10:42:55;6.20;99.90
41694;DHT22;27377;50.666;9.150;2023-04-06T10:45:25;6.20;99.90
41694;DHT22;27377;50.666;9.150;2023-04-06T10:47:54;6.20;99.90
41694;DHT22;27377;50.666;9.150;2023-04-06T10:50:21;6.30;99.90
41694;DHT22;27377;50.666;9.150;2023-04-06T10:52:47;6.30;99.90
41694;DHT22;27377;50.666;9.150;2023-04-06T10:55:13;6.40;99.90
41694;DHT22;27377;50.666;9.150;2023-04-06T10:57:40;6.40;99.90
41694;DHT22;27377;50.666;9.150;2023-04-06T11:00:07;6.50;99.90
41694;DHT22;27377;50.666;9.150;2023-04-06T11:02:34;6.50;99.90
41694;DHT22;27377;50.666;9.150;2023-04-06T11:04:59;6.60;99.90
41694;DHT22;27377;50.666;9.150;2023-04-06T11:07:26;6.60;99.90
41694;DHT22;27377;50.666;9.150;2023-04-06T11:09:52;6.70;99.90
41694;DHT22;27377;50.666;9.150;2023-04-06T11:12:26;6.70;99.90
41694;DHT22;27377;50.666;9.150;2023-04-06T11:14:56;6.80;99.50
41694;DHT22;27377;50.666;9.150;2023-04-06T11:17:27;6.80;99.90
41694;DHT22;27377;50.666;9.150;2023-04-06T11:19:53;6.90;99.90
41694;DHT22;27377;50.666;9.150;2023-04-06T11:22:19;6.90;99.90
41694;DHT22;27377;50.666;9.150;2023-04-06T11:24:44;6.90;99.90
41694;DHT22;27377;50.666;9.150;2023-04-06T11:27:10;6.90;99.80
41694;DHT22;27377;50.666;9.150;2023-04-06T11:29:35;7.00;99.90
41694;DHT22;27377;50.666;9.150;2023-04-06T11:32:05;7.00;99.70
41694;DHT22;27377;50.666;9.150;2023-04-06T11:34:34;7.00;99.90
41694;DHT22;27377;50.666;9.150;2023-04-06T11:37:03;7.10;99.60
41694;DHT22;27377;50.666;9.150;2023-04-06T11:39:32;7.10;99.80
41694;DHT22;27377;50.666;9.150;2023-04-06T11:42:02;7.20;99.10
41694;DHT22;27377;50.666;9.150;2023-04-06T11:44:44;7.30;99.90
41694;DHT22;27377;50.666;9.150;2023-04-06T11:47:14;7.30;99.00
41694;DHT22;27377;50.666;9.150;2023-04-06T11:49:42;7.40;98.80
41694;DHT22;27377;50.666;9.150;2023-04-06T11:52:37;7.40;98.90
41694;DHT22;27377;50.666;9.150;2023-04-06T11:55:17;7.40;99.10
41694;DHT22;27377;50.666;9.150;2023-04-06T11:57:43;7.50;99.70
41694;DHT22;27377;50.666;9.150;2023-04-06T12:00:11;7.50;99.40
41694;DHT22;27377;50.666;9.150;2023-04-06T12:02:38;7.50;99.00
41694;DHT22;27377;50.666;9.150;2023-04-06T12:05:04;7.50;99.40
41694;DHT22;27377;50.666;9.150;2023-04-06T12:07:31;7.50;99.70
41694;DHT22;27377;50.666;9.150;2023-04-06T12:09:57;7.60;99.80
41694;DHT22;27377;50.666;9.150;2023-04-06T12:12:23;7.60;99.80
41694;DHT22;27377;50.666;9.150;2023-04-06T12:14:49;7.60;99.00
41694;DHT22;27377;50.666;9.150;2023-04-06T12:17:14;7.70;98.70
41694;DHT22;27377;50.666;9.150;2023-04-06T12:19:40;7.70;98.80
41694;DHT22;27377;50.666;9.150;2023-04-06T12:22:05;7.80;99.10
41694;DHT22;27377;50.666;9.150;2023-04-06T12:24:31;7.80;99.10
41694;DHT22;27377;50.666;9.150;2023-04-06T12:26:57;7.80;98.40
41694;DHT22;27377;50.666;9.150;2023-04-06T12:29:24;7.80;98.50
41694;DHT22;27377;50.666;9.150;2023-04-06T12:31:50;7.90;97.90
41694;DHT22;27377;50.666;9.150;2023-04-06T12:34:16;7.80;97.70
41694;DHT22;27377;50.666;9.150;2023-04-06T12:36:42;7.80;98.20
41694;DHT22;27377;50.666;9.150;2023-04-06T12:39:07;7.80;99.00
41694;DHT22;27377;50.666;9.150;2023-04-06T12:41:33;7.90;98.40
41694;DHT22;27377;50.666;9.150;2023-04-06T12:43:59;7.90;97.90
41694;DHT22;27377;50.666;9.150;2023-04-06T12:46:25;7.90;98.10
41694;DHT22;27377;50.666;9.150;2023-04-06T12:48:51;7.90;98.70
41694;DHT22;27377;50.666;9.150;2023-04-06T12:51:20;8.00;98.40
41694;DHT22;27377;50.666;9.150;2023-04-06T12:53:46;8.10;97.50
41694;DHT22;27377;50.666;9.150;2023-04-06T12:56:16;8.10;98.00
41694;DHT22;27377;50.666;9.150;2023-04-06T12:58:43;8.10;98.00
41694;DHT22;27377;50.666;9.150;2023-04-06T13:01:09;8.10;96.50
41694;DHT22;27377;50.666;9.150;2023-04-06T13:03:36;8.20;97.00
41694;DHT22;27377;50.666;9.150;2023-04-06T13:06:02;8.20;97.40
41694;DHT22;27377;50.666;9.150;2023-04-06T13:08:28;8.20;97.10
41694;DHT22;27377;50.666;9.150;2023-04-06T13:10:53;8.30;96.40
41694;DHT22;27377;50.666;9.150;2023-04-06T13:13:27;8.30;96.70
41694;DHT22;27377;50.666;9.150;2023-04-06T13:15:54;8.40;96.50
41694;DHT22;27377;50.666;9.150;2023-04-06T13:18:21;8.40;97.00
41694;DHT22;27377;50.666;9.150;2023-04-06T13:20:48;8.40;96.70
41694;DHT22;27377;50.666;9.150;2023-04-06T13:23:13;8.40;96.80
41694;DHT22;27377;50.666;9.150;2023-04-06T13:25:39;8.40;96.80
41694;DHT22;27377;50.666;9.150;2023-04-06T13:28:05;8.50;96.50
41694;DHT22;27377;50.666;9.150;2023-04-06T13:30:30;8.50;96.50
41694;DHT22;27377;50.666;9.150;2023-04-06T13:32:56;8.50;95.70
41694;DHT22;27377;50.666;9.150;2023-04-06T13:35:22;8.60;95.50
41694;DHT22;27377;50.666;9.150;2023-04-06T13:37:47;8.60;95.10
41694;DHT22;27377;50.666;9.150;2023-04-06T13:40:14;8.60;94.60
41694;DHT22;27377;50.666;9.150;2023-04-06T13:42:39;8.70;95.10
41694;DHT22;27377;50.666;9.150;2023-04-06T13:45:06;8.70;93.60
41694;DHT22;27377;50.666;9.150;2023-04-06T13:47:32;8.70;93.30
41694;DHT22;27377;50.666;9.150;2023-04-06T13:49:58;8.70;93.30
41694;DHT22;27377;50.666;9.150;2023-04-06T13:52:24;8.80;93.50
41694;DHT22;27377;50.666;9.150;2023-04-06T13:54:49;8.70;93.60
41694;DHT22;27377;50.666;9.150;2023-04-06T13:57:15;8.80;94.20
41694;DHT22;27377;50.666;9.150;2023-04-06T13:59:41;8.80;93.70
41694;DHT22;27377;50.666;9.150;2023-04-06T14:02:08;8.80;93.40
41694;DHT22;27377;50.666;9.150;2023-04-06T14:04:35;8.80;93.20
41694;DHT22;27377;50.666;9.150;2023-04-06T14:07:01;8.80;93.80
41694;DHT22;27377;50.666;9.150;2023-04-06T14:09:28;8.80;94.50
41694;DHT22;27377;50.666;9.150;2023-04-06T14:11:54;8.90;93.70
41694;DHT22;27377;50.666;9.150;2023-04-06T14:14:20;8.90;93.90
41694;DHT22;27377;50.666;9.150;2023-04-06T14:16:46;8.90;93.00
41694;DHT22;27377;50.666;9.150;2023-04-06T14:19:14;9.00;92.60
41694;DHT22;27377;50.666;9.150;2023-04-06T14:21:41;9.00;92.30
41694;DHT22;27377;50.666;9.150;2023-04-06T14:24:07;9.00;92.50
41694;DHT22;27377;50.666;9.150;2023-04-06T14:26:35;9.00;93.20
41694;DHT22;27377;50.666;9.150;2023-04-06T14:29:01;9.00;93.40
41694;DHT22;27377;50.666;9.150;2023-04-06T14:31:26;9.00;93.10
41694;DHT22;27377;50.666;9.150;2023-04-06T14:33:52;9.00;93.00
41694;DHT22;27377;50.666;9.150;2023-04-06T14:36:18;9.00;93.00
41694;DHT22;27377;50.666;9.150;2023-04-06T14:38:43;9.00;92.80
41694;DHT22;27377;50.666;9.150;2023-04-06T14:41:23;9.00;92.40
41694;DHT22;27377;50.666;9.150;2023-04-06T14:43:49;9.00;92.40
41694;DHT22;27377;50.666;9.150;2023-04-06T14:46:15;9.00;92.10
41694;DHT22;27377;50.666;9.150;2023-04-06T14:48:43;9.00;91.80
41694;DHT22;27377;50.666;9.150;2023-04-06T14:51:09;9.00;91.80
41694;DHT22;27377;50.666;9.150;2023-04-06T14:53:35;9.00;92.80
41694;DHT22;27377;50.666;9.150;2023-04-06T14:56:00;9.00;92.20
41694;DHT22;27377;50.666;9.150;2023-04-06T14:58:26;9.00;91.50
41694;DHT22;27377;50.666;9.150;2023-04-06T15:00:59;9.00;91.90
41694;DHT22;27377;50.666;9.150;2023-04-06T15:03:25;9.00;92.00
41694;DHT22;27377;50.666;9.150;2023-04-06T15:05:52;9.00;92.50
41694;DHT22;27377;50.666;9.150;2023-04-06T15:08:18;9.00;93.40
41694;DHT22;27377;50.666;9.150;2023-04-06T15:10:46;9.00;93.30
41694;DHT22;27377;50.666;9.150;2023-04-06T15:13:12;9.10;93.60
41694;DHT22;27377;50.666;9.150;2023-04-06T15:15:37;9.10;93.00
41694;DHT22;27377;50.666;9.150;2023-04-06T15:18:03;9.10;93.20
41694;DHT22;27377;50.666;9.150;2023-04-06T15:20:29;9.20;93.50
41694;DHT22;27377;50.666;9.150;2023-04-06T15:22:55;9.20;93.90
41694;DHT22;27377;50.666;9.150;2023-04-06T15:25:21;9.10;93.70
41694;DHT22;27377;50.666;9.150;2023-04-06T15:27:47;9.20;93.80
41694;DHT22;27377;50.666;9.150;2023-04-06T15:30:13;9.20;93.90
41694;DHT22;27377;50.666;9.150;2023-04-06T15:32:38;9.20;93.70
41694;DHT22;27377;50.666;9.150;2023-04-06T15:35:11;9.20;94.10
41694;DHT22;27377;50.666;9.150;2023-04-06T15:37:37;9.20;94.00
41694;DHT22;27377;50.666;9.150;2023-04-06T15:40:04;9.20;94.10
41694;DHT22;27377;50.666;9.150;2023-04-06T15:42:30;9.10;94.00